Data for 09/09/2015

Time Sea-Level Adjusted Pressure Absolute Pressure Temperature Relative Humidity Dew Point   
(mb) (inHg) (mb) (inHg) (C) (F) (%) (C) (F)
00:05 1021 30.15 850 25.1 11.2 52.2 42 -1.1 30
00:10 1021 30.15 850 25.1 11.5 52.7 42 -0.9 30.4
00:15 1021 30.15 850 25.1 11.5 52.7 43 -0.7 30.7
00:20 1021 30.15 850 25.1 11.5 52.8 42 -0.9 30.4
00:25 1021 30.15 850 25.1 11.6 52.8 42 -0.9 30.4
00:30 1021 30.15 850 25.1 11.5 52.7 42 -0.9 30.4
00:35 1021 30.15 850 25.1 11.4 52.6 43 -0.6 30.9
00:40 1021 30.15 850 25.1 11.2 52.2 44 -0.6 30.9
00:45 1021 30.15 850 25.1 11.2 52.1 43 -0.9 30.3
00:50 1021 30.15 850 25.1 11.2 52.1 45 -0.4 31.3
00:55 1021 30.15 850 25.1 11 51.8 44 -0.7 30.7
01:00 1021 30.15 850 25.1 11.2 52.1 42 -1.1 30
01:05 1021 30.15 850 25.1 11.3 52.4 42 -1.2 29.9
01:10 1021 30.15 850 25.1 11.5 52.6 41 -1.4 29.5
01:15 1021 30.15 850 25.1 11.8 53.2 40 -1.4 29.4
01:20 1021 30.15 850 25.1 11.8 53.3 40 -1.2 29.9
01:25 1021 30.15 850 25.1 11.8 53.2 41 -0.9 30.3
01:30 1021 30.15 850 25.1 11.8 53.2 40 -1.5 29.3
01:35 1021 30.15 850 25.1 11.8 53.3 40 -1.1 30
01:40 1021 30.15 850 25.1 11.8 53.2 39 -1.8 28.7
01:45 1021 30.15 850 25.1 12.1 53.8 38 -1.8 28.7
01:50 1021 30.15 850 25.1 12.4 54.3 36 -2.1 28.2
01:55 1021 30.15 850 25.1 12.6 54.7 35 -2.4 27.6
02:00 1021 30.15 850 25.1 12.8 55 34 -2.7 27.1
02:05 1021 30.15 850 25.1 13 55.4 34 -2.5 27.6
02:10 1021 30.15 850 25.1 13 55.4 36 -1.8 28.8
02:15 1021 30.15 850 25.1 12.8 55 37 -1.4 29.5
02:20 1021 30.15 850 25.1 12.5 54.4 38 -1.3 29.6
02:25 1021 30.15 850 25.1 12.2 54 39 -1.3 29.7
02:30 1021 30.15 850 25.1 12 53.6 40 -1.2 29.9
02:35 1021 30.15 850 25.1 11.7 53.1 41 -1 30.2
02:40 1021 30.15 850 25.1 11.5 52.6 43 -0.6 30.9
02:45 1021 30.15 851 25.13 11.2 52.2 45 -0.3 31.5
02:50 1021 30.15 850 25.1 11.1 52 43 -0.9 30.3
02:55 1021 30.15 851 25.13 11.4 52.5 41 -1.5 29.4
03:00 1021 30.15 851 25.13 11.6 52.9 41 -1 30.2
03:05 1021 30.15 851 25.13 11.7 53 40 -1.3 29.7
03:10 1022 30.18 851 25.13 11.7 53 41 -1.2 29.8
03:15 1022 30.18 851 25.13 11.6 52.9 40 -1.3 29.7
03:20 1022 30.18 851 25.13 11.6 53 40 -1.4 29.5
03:25 1022 30.18 851 25.13 11.7 53 41 -1.1 30
03:30 1022 30.18 851 25.13 11.6 52.9 43 -0.4 31.2
03:35 1022 30.18 851 25.13 11.3 52.3 45 -0.2 31.7
03:40 1022 30.18 851 25.13 11 51.8 46 -0.1 31.7
03:45 1022 30.18 851 25.13 11 51.8 46 -0.1 31.7
03:50 1021 30.15 851 25.13 11.2 52.2 44 -0.5 31.2
03:55 1021 30.15 851 25.13 11.5 52.8 44 -0.4 31.4
04:00 1021 30.15 851 25.13 11.7 53.1 43 -0.3 31.4
04:05 1021 30.15 851 25.13 11.9 53.4 43 -0.3 31.5
04:10 1021 30.15 851 25.13 12 53.6 43 -0.1 31.9
04:15 1021 30.15 851 25.13 12 53.6 43 -0 32
04:20 1021 30.15 851 25.13 11.9 53.5 44 0.1 32.1
04:25 1021 30.15 850 25.1 12 53.6 43 -0 31.9
04:30 1021 30.15 850 25.1 11.9 53.4 44 -0 31.9
04:35 1021 30.15 850 25.1 12 53.6 42 -0.6 31
04:40 1021 30.15 850 25.1 12.2 53.9 43 -0.1 31.9
04:45 1021 30.15 850 25.1 12.1 53.7 41 -0.6 30.9
04:50 1021 30.15 850 25.1 11.8 53.2 44 0.1 32.2
04:55 1021 30.15 850 25.1 11.3 52.3 45 -0 31.9
05:00 1021 30.15 850 25.1 11.1 51.9 47 0.3 32.6
05:05 1021 30.15 850 25.1 10.6 51.1 49 0.4 32.7
05:10 1021 30.15 850 25.1 10.4 50.8 47 -0.5 31.1
05:15 1021 30.15 851 25.13 10.5 51 46 -0.5 31.1
05:20 1021 30.15 851 25.13 10.4 50.6 47 -0.4 31.3
05:25 1021 30.15 851 25.13 10.2 50.4 48 -0.2 31.7
05:30 1021 30.15 851 25.13 9.8 49.7 49 -0.4 31.3
05:35 1021 30.15 851 25.13 9.9 49.7 47 -0.9 30.4
05:40 1021 30.15 851 25.13 10 50 47 -0.8 30.5
05:45 1021 30.15 851 25.13 10.1 50.2 46 -0.9 30.4
05:50 1022 30.18 851 25.13 10.1 50.1 46 -1 30.1
05:55 1022 30.18 851 25.13 10.2 50.4 47 -0.5 31.1
06:00 1022 30.18 851 25.13 10.1 50.2 46 -1 30.2
06:05 1022 30.18 851 25.13 10.2 50.4 47 -0.6 31
06:10 1022 30.18 851 25.13 10.1 50.1 47 -0.7 30.7
06:15 1022 30.18 851 25.13 10.4 50.7 45 -1.1 30.1
06:20 1022 30.18 851 25.13 10.9 51.6 44 -0.9 30.3
06:25 1022 30.18 851 25.13 11.1 51.9 43 -0.9 30.3
06:30 1022 30.18 851 25.13 11.2 52.2 44 -0.6 31
06:35 1022 30.18 851 25.13 11.2 52.2 47 0.3 32.5
06:40 1022 30.18 851 25.13 10.5 50.8 53 1.4 34.6
06:45 1022 30.18 851 25.13 9.4 48.9 55 0.7 33.3
06:50 1022 30.18 851 25.13 9.4 49 53 0.3 32.6
06:55 1022 30.18 851 25.13 9.9 49.7 52 0.4 32.7
07:00 1022 30.18 851 25.13 10.4 50.8 50 0.4 32.8
07:05 1022 30.18 851 25.13 10.6 51.1 49 0.3 32.6
07:10 1022 30.18 851 25.13 10.8 51.5 49 0.7 33.2
07:15 1022 30.18 851 25.13 11 51.8 50 0.9 33.7
07:20 1022 30.18 851 25.13 11.2 52.2 49 0.8 33.5
07:25 1022 30.18 851 25.13 11.8 53.3 48 1.1 34
07:30 1022 30.18 851 25.13 12.4 54.4 47 1.6 34.9
07:35 1022 30.18 851 25.13 12.8 55.1 45 1.2 34.2
07:40 1022 30.18 851 25.13 12.9 55.1 45 1.2 34.2
07:45 1022 30.18 851 25.13 13.4 56 43 1.1 33.9
07:50 1022 30.18 851 25.13 14 57.2 43 1.8 35.2
07:55 1022 30.18 851 25.13 14.3 57.8 43 2 35.5
08:00 1022 30.18 851 25.13 14.9 58.9 42 2.3 36.2
08:05 1022 30.18 851 25.13 15.7 60.2 40 2.3 36.1
08:10 1022 30.18 851 25.13 16.4 61.5 36 1.6 34.8
08:15 1022 30.18 851 25.13 16.4 61.5 32 -0 31.9
08:20 1022 30.18 851 25.13 16.3 61.3 32 -0.3 31.5
08:25 1022 30.18 851 25.13 17 62.5 31 -0.1 31.7
08:30 1022 30.18 851 25.13 17.6 63.7 30 -0.1 31.8
08:35 1022 30.18 851 25.13 17.8 64 30 0.2 32.3
08:40 1022 30.18 851 25.13 18.3 65 27 -0.9 30.4
08:45 1022 30.18 851 25.13 18.6 65.4 26 -1.1 29.9
08:50 1022 30.18 851 25.13 18.9 66.1 26 -0.7 30.7
08:55 1022 30.18 851 25.13 19.1 66.3 27 -0.2 31.6
09:00 1022 30.18 851 25.13 18.9 66 28 -0.1 31.9
09:05 1022 30.18 851 25.13 18.9 66 27 -0.2 31.6
09:10 1022 30.18 851 25.13 18.5 65.2 27 -0.7 30.7
09:15 1022 30.18 851 25.13 18.8 65.9 26 -0.7 30.7
09:20 1022 30.18 851 25.13 18.5 65.2 27 -1 30.2
09:25 1022 30.18 851 25.13 19.1 66.3 26 -0.6 30.9
09:30 1022 30.18 851 25.13 19.1 66.3 26 -0.6 30.9
09:35 1022 30.18 851 25.13 18.7 65.6 27 -0.6 30.8
09:40 1022 30.18 851 25.13 19.5 67.1 25 -1 30.1
09:45 1022 30.18 851 25.13 18.9 66 25 -1.2 29.9
09:50 1022 30.18 851 25.13 19.2 66.6 25 -1 30.1
09:55 1022 30.18 851 25.13 20.4 68.6 23 -1.3 29.6
10:00 1022 30.18 851 25.13 21 69.7 22 -1.3 29.7
10:05 1022 30.18 851 25.13 21 69.7 22 -1.5 29.3
10:10 1022 30.18 851 25.13 20.6 69.2 22 -1.8 28.8
10:15 1022 30.18 851 25.13 20.3 68.6 24 -1 30.2
10:20 1022 30.18 851 25.13 21 69.8 22 -1.4 29.4
10:25 1021 30.15 851 25.13 21 69.8 22 -1.2 29.8
10:30 1021 30.15 851 25.13 20.7 69.3 24 -0.6 31
10:35 1021 30.15 851 25.13 20.9 69.6 23 -1 30.2
10:40 1021 30.15 851 25.13 21.4 70.5 22 -1 30.2
10:45 1021 30.15 851 25.13 21.2 70.2 23 -0.6 30.9
10:50 1021 30.15 851 25.13 20.5 68.9 25 -0.2 31.6
10:55 1021 30.15 851 25.13 20.8 69.5 23 -0.6 30.9
11:00 1021 30.15 851 25.13 20.1 68.1 25 -0.5 31.2
11:05 1021 30.15 851 25.13 21 69.7 22 -1.5 29.4
11:10 1021 30.15 851 25.13 20.5 68.9 25 -0.1 31.8
11:15 1021 30.15 851 25.13 20.3 68.6 22 -1.6 29
11:20 1021 30.15 851 25.13 20.1 68.1 25 -0.4 31.2
11:25 1021 30.15 850 25.1 20.6 69.1 22 -1.5 29.2
11:30 1021 30.15 850 25.1 20.1 68.2 23 -1.3 29.7
11:35 1021 30.15 850 25.1 20.4 68.6 24 -1 30.2
11:40 1021 30.15 850 25.1 20.7 69.2 24 -0.7 30.7
11:45 1021 30.15 850 25.1 21 69.7 22 -1.2 29.8
11:50 1021 30.15 850 25.1 20.7 69.2 24 -0.5 31
11:55 1021 30.15 850 25.1 20.8 69.5 23 -1.2 29.9
12:00 1021 30.15 850 25.1 20 68 25 -0.4 31.2
12:05 1021 30.15 850 25.1 20.4 68.6 23 -1.1 30
12:10 1021 30.15 850 25.1 20.6 69.1 23 -0.8 30.5
12:15 1021 30.15 850 25.1 20.7 69.3 24 -0.7 30.7
12:20 1021 30.15 850 25.1 20.7 69.2 23 -1.2 29.9
12:25 1021 30.15 850 25.1 20.6 69.1 23 -1 30.3
12:30 1021 30.15 850 25.1 20.7 69.2 24 -0.7 30.8
12:35 1021 30.15 850 25.1 20.8 69.4 23 -1.1 30.1
12:40 1021 30.15 850 25.1 20.3 68.6 24 -0.7 30.7
12:45 1021 30.15 850 25.1 20.3 68.6 24 -0.6 31
12:50 1021 30.15 850 25.1 20.7 69.2 23 -0.8 30.6
12:55 1021 30.15 850 25.1 20.5 68.9 24 -0.5 31.1
13:00 1021 30.15 850 25.1 20.8 69.5 23 -0.6 30.9
13:05 1020 30.12 850 25.1 21.2 70.1 23 -0.5 31.1
13:10 1020 30.12 850 25.1 21.5 70.6 22 -0.7 30.8
13:15 1020 30.12 849 25.07 21.4 70.5 22 -0.9 30.4
13:20 1020 30.12 849 25.07 20.9 69.7 23 -0.7 30.7
13:25 1020 30.12 849 25.07 21.5 70.8 20 -1.9 28.6
13:30 1020 30.12 849 25.07 21.6 70.9 21 -1.2 29.8
13:35 1020 30.12 849 25.07 22.2 72 19 -2.1 28.3
13:40 1020 30.12 849 25.07 22.2 71.9 20 -1.4 29.5
13:45 1020 30.12 849 25.07 22.1 71.8 20 -1.4 29.5
13:50 1020 30.12 849 25.07 23.4 74.1 19 -1.1 30.1
13:55 1020 30.12 849 25.07 23.7 74.7 19 -0.8 30.6
14:00 1020 30.12 849 25.07 23.7 74.7 19 -1.4 29.5
14:05 1020 30.12 849 25.07 22.9 73.3 20 -0.8 30.5
14:10 1020 30.12 849 25.07 22.9 73.2 20 -1.1 30
14:15 1020 30.12 849 25.07 22.8 73.1 20 -0.8 30.6
14:20 1020 30.12 849 25.07 22.8 73.1 20 -0.8 30.6
14:25 1020 30.12 849 25.07 22.8 73.1 21 -0.7 30.7
14:30 1020 30.12 849 25.07 22 71.7 22 -0.4 31.3
14:35 1020 30.12 849 25.07 22.3 72.1 20 -1.3 29.7
14:40 1020 30.12 849 25.07 22.6 72.8 20 -1.2 29.9
14:45 1019 30.09 849 25.07 22.6 72.7 20 -1.2 29.9
14:50 1019 30.09 849 25.07 22.6 72.7 21 -0.9 30.3
14:55 1019 30.09 849 25.07 22.6 72.7 20 -1.2 29.8
15:00 1019 30.09 849 25.07 22.9 73.3 20 -1.1 30.1
15:05 1019 30.09 848 25.04 23 73.3 20 -0.8 30.5
15:10 1019 30.09 848 25.04 23 73.4 20 -1.1 30.1
15:15 1019 30.09 848 25.04 23.2 73.8 19 -1.6 29.1
15:20 1019 30.09 848 25.04 23.3 73.9 19 -1.4 29.5
15:25 1019 30.09 848 25.04 24 75.3 19 -0.8 30.5
15:30 1019 30.09 848 25.04 24.1 75.4 18 -1.3 29.6
15:35 1019 30.09 848 25.04 23.9 75 20 -0.5 31
15:40 1019 30.09 848 25.04 24 75.2 19 -1 30.2
15:45 1019 30.09 848 25.04 24.3 75.8 18 -1 30.2
15:50 1019 30.09 848 25.04 24.7 76.5 18 -1.3 29.6
15:55 1019 30.09 848 25.04 25 76.9 17 -1.1 29.9
16:00 1019 30.09 848 25.04 24.6 76.3 17 -2 28.4
16:05 1019 30.09 848 25.04 24.2 75.5 17 -2.4 27.7
16:10 1019 30.09 848 25.04 25.1 77.3 15 -2.8 27
16:15 1019 30.09 848 25.04 25.4 77.7 16 -1.8 28.8
16:20 1019 30.09 848 25.04 24.8 76.6 17 -1.6 29.1
16:25 1019 30.09 848 25.04 25.2 77.4 16 -2.6 27.4
16:30 1019 30.09 848 25.04 25.5 77.9 17 -1.1 30.1
16:35 1019 30.09 848 25.04 24.7 76.5 17 -1.3 29.6
16:40 1019 30.09 848 25.04 24.1 75.4 18 -1.5 29.4
16:45 1019 30.09 848 25.04 24.1 75.4 18 -1.1 30
16:50 1019 30.09 848 25.04 24.2 75.6 21 0.6 33
16:55 1019 30.09 848 25.04 24.5 76 18 -1.4 29.5
17:00 1019 30.09 848 25.04 24.7 76.5 17 -1.4 29.4
17:05 1019 30.09 848 25.04 24.7 76.5 17 -1.4 29.5
17:10 1019 30.09 848 25.04 24.5 76.1 18 -1.5 29.3
17:15 1019 30.09 848 25.04 24.3 75.7 19 -0.4 31.2
17:20 1019 30.09 848 25.04 24.2 75.6 18 -1.6 29.1
17:25 1018 30.06 848 25.04 24.1 75.3 18 -1.2 29.8
17:30 1018 30.06 848 25.04 23.9 75 18 -1.7 29
17:35 1018 30.06 848 25.04 23.8 74.8 18 -1.8 28.8
17:40 1018 30.06 848 25.04 23.9 74.9 19 -0.9 30.4
17:45 1018 30.06 848 25.04 23.9 75 21 0.2 32.4
17:50 1019 30.09 848 25.04 23.8 74.8 18 -1.5 29.4
17:55 1019 30.09 848 25.04 23.6 74.4 20 -0.8 30.6
18:00 1019 30.09 848 25.04 23.4 74.1 19 -1.4 29.5
18:05 1019 30.09 848 25.04 23.2 73.7 22 0.3 32.5
18:10 1019 30.09 848 25.04 23 73.4 21 -0.3 31.5
18:15 1019 30.09 848 25.04 22.8 73.1 23 0.8 33.5
18:20 1019 30.09 848 25.04 22.6 72.7 22 -0.2 31.6
18:25 1019 30.09 848 25.04 22.5 72.4 24 0.9 33.7
18:30 1019 30.09 848 25.04 22.3 72.2 24 0.8 33.5
18:35 1019 30.09 848 25.04 22.2 72 25 1.6 34.9
18:40 1019 30.09 848 25.04 22 71.6 27 2.6 36.7
18:45 1019 30.09 848 25.04 21.7 71 25 1 33.8
18:50 1019 30.09 848 25.04 21.4 70.6 26 1.3 34.3
18:55 1019 30.09 848 25.04 21.1 70.1 27 1.6 34.9
19:00 1019 30.09 848 25.04 21 69.8 27 1.3 34.4
19:05 1019 30.09 848 25.04 20.8 69.5 29 2.2 35.9
19:10 1019 30.09 848 25.04 20.5 68.9 27 1.2 34.2
19:15 1019 30.09 848 25.04 20.3 68.5 27 0.7 33.2
19:20 1019 30.09 849 25.07 20.1 68.2 28 1 33.9
19:25 1019 30.09 849 25.07 19.9 67.9 28 1 33.8
19:30 1019 30.09 849 25.07 19.8 67.6 27 0.6 33.1
19:35 1019 30.09 849 25.07 19.6 67.3 27 0.5 32.9
19:40 1020 30.12 849 25.07 19.5 67.1 28 0.4 32.8
19:45 1020 30.12 849 25.07 19.3 66.8 29 1.1 33.9
19:50 1020 30.12 849 25.07 19 66.3 30 1.1 34.1
19:55 1020 30.12 849 25.07 18.7 65.6 31 1.2 34.2
20:00 1020 30.12 849 25.07 18.3 65 31 1 33.8
20:05 1020 30.12 849 25.07 18.1 64.6 33 1.7 35
20:10 1020 30.12 849 25.07 17.6 63.7 39 3.8 38.8
20:15 1020 30.12 849 25.07 16.3 61.4 45 4.5 40
20:20 1020 30.12 849 25.07 15.5 59.9 43 2.9 37.3
20:25 1020 30.12 850 25.1 15.9 60.6 42 3 37.3
20:30 1020 30.12 849 25.07 16.1 60.9 42 3.1 37.6
20:35 1020 30.12 850 25.1 16.3 61.4 41 3.3 37.9
20:40 1020 30.12 850 25.1 16.7 62.1 38 2.5 36.6
20:45 1020 30.12 850 25.1 16.8 62.2 36 1.7 35
20:50 1020 30.12 850 25.1 16.8 62.3 36 1.9 35.5
20:55 1021 30.15 850 25.1 16.8 62.2 35 1.2 34.1
21:00 1021 30.15 850 25.1 16.9 62.4 35 1.6 34.8
21:05 1021 30.15 850 25.1 16.9 62.4 34 0.9 33.6
21:10 1021 30.15 850 25.1 16.8 62.2 35 1.5 34.7
21:15 1021 30.15 850 25.1 16.6 61.9 36 1.6 34.9
21:20 1021 30.15 850 25.1 16.6 61.9 37 2 35.6
21:25 1021 30.15 850 25.1 16.2 61.1 39 2.4 36.4
21:30 1021 30.15 850 25.1 15.9 60.6 39 2.2 35.9
21:35 1021 30.15 850 25.1 15.8 60.4 40 2.2 35.9
21:40 1021 30.15 850 25.1 15.6 60 41 2.6 36.7
21:45 1021 30.15 850 25.1 15.1 59.2 43 2.7 36.9
21:50 1021 30.15 850 25.1 14.8 58.6 44 2.8 37
21:55 1021 30.15 850 25.1 14.7 58.5 40 1.3 34.3
22:00 1021 30.15 850 25.1 15.6 60.1 37 1.2 34.1
22:05 1021 30.15 850 25.1 15.9 60.6 39 1.9 35.4
22:10 1021 30.15 850 25.1 15.7 60.2 37 1.1 34
22:15 1021 30.15 850 25.1 16 60.7 35 0.8 33.4
22:20 1021 30.15 850 25.1 16 60.7 36 0.9 33.6
22:25 1021 30.15 850 25.1 16.1 60.9 34 0.5 32.9
22:30 1021 30.15 850 25.1 16.3 61.4 34 0.5 32.9
22:35 1021 30.15 850 25.1 16.3 61.4 34 0.7 33.3
22:40 1021 30.15 850 25.1 16.1 61 35 0.9 33.6
22:45 1021 30.15 850 25.1 16 60.9 36 0.9 33.7
22:50 1021 30.15 850 25.1 15.9 60.6 36 1.1 33.9
22:55 1021 30.15 850 25.1 15.8 60.4 36 0.8 33.4
23:00 1021 30.15 850 25.1 15.9 60.5 36 0.8 33.5
23:05 1021 30.15 850 25.1 16.1 61 38 1.9 35.5
23:10 1021 30.15 850 25.1 16.2 61.2 36 1.2 34.1
23:15 1021 30.15 850 25.1 16.2 61.1 35 0.7 33.3
23:20 1021 30.15 850 25.1 16 60.8 37 1.4 34.6
23:25 1021 30.15 850 25.1 15.6 60.1 42 2.8 37
23:30 1021 30.15 850 25.1 15.4 59.7 40 1.8 35.3
23:35 1021 30.15 850 25.1 15.4 59.6 39 1.7 35.1
23:40 1021 30.15 850 25.1 15.3 59.5 41 2.2 35.9
23:45 1021 30.15 850 25.1 15.4 59.8 41 2.2 35.9
23:50 1021 30.15 850 25.1 15.5 59.8 38 1.4 34.6
23:55 1021 30.15 851 25.13 15.5 59.9 38 1.4 34.5
24:00 1021 30.15 851 25.13 15.5 59.9 39 1.6 35